createdAt,value
2023-04-30T00:02:07.351Z,18.25
2023-04-30T00:04:38.080Z,18.26
2023-04-30T00:07:08.388Z,18.20
2023-04-30T00:09:38.308Z,18.16
2023-04-30T00:12:08.658Z,18.12
2023-04-30T00:14:38.614Z,18.17
2023-04-30T00:17:08.958Z,18.12
2023-04-30T00:19:39.549Z,17.97
2023-04-30T00:22:10.920Z,17.88
2023-04-30T00:24:40.862Z,17.81
2023-04-30T00:27:11.198Z,17.80
2023-04-30T00:29:41.246Z,17.78
2023-04-30T00:32:12.257Z,17.87
2023-04-30T00:34:42.358Z,17.86
2023-04-30T00:37:12.959Z,17.88
2023-04-30T00:39:43.029Z,17.85
2023-04-30T00:42:13.457Z,17.96
2023-04-30T00:44:43.387Z,17.96
2023-04-30T00:47:13.811Z,17.89
2023-04-30T00:49:46.918Z,17.80
2023-04-30T00:52:17.654Z,17.80
2023-04-30T00:54:47.625Z,17.74
2023-04-30T00:57:18.146Z,17.63
2023-04-30T00:59:48.566Z,17.59
2023-04-30T01:02:19.375Z,17.71
2023-04-30T01:04:49.491Z,17.75
2023-04-30T01:07:20.047Z,17.95
2023-04-30T01:09:50.226Z,18.03
2023-04-30T01:12:39.650Z,18.08
2023-04-30T01:15:16.450Z,17.95
2023-04-30T01:18:04.927Z,17.73
2023-04-30T01:20:35.721Z,17.51
2023-04-30T01:23:27.091Z,17.48
2023-04-30T01:26:30.493Z,17.47
2023-04-30T01:29:01.708Z,17.45
2023-04-30T01:31:32.469Z,17.42
2023-04-30T01:34:02.903Z,17.43
2023-04-30T01:36:47.664Z,17.63
2023-04-30T01:39:24.184Z,17.74
2023-04-30T01:42:07.502Z,17.68
2023-04-30T01:44:52.749Z,17.64
2023-04-30T01:47:25.270Z,17.84
2023-04-30T01:50:26.111Z,17.48
2023-04-30T01:53:00.321Z,17.49
2023-04-30T01:55:46.736Z,17.35
2023-04-30T01:58:18.195Z,17.23
2023-04-30T02:00:48.759Z,17.35
2023-04-30T02:03:18.818Z,17.20
2023-04-30T02:05:50.016Z,17.31
2023-04-30T02:08:19.926Z,17.23
2023-04-30T02:10:50.291Z,17.09
2023-04-30T02:13:20.278Z,17.06
2023-04-30T02:15:50.804Z,17.03
2023-04-30T02:18:21.069Z,17.13
2023-04-30T02:20:51.583Z,17.23
2023-04-30T02:23:21.875Z,17.14
2023-04-30T02:25:52.229Z,17.15
2023-04-30T02:28:22.209Z,16.99
2023-04-30T02:30:52.831Z,16.87
2023-04-30T02:33:22.782Z,17.00
2023-04-30T02:35:53.206Z,17.18
2023-04-30T02:38:23.187Z,17.27
2023-04-30T02:40:53.804Z,17.23
2023-04-30T02:43:23.819Z,17.22
2023-04-30T02:45:54.310Z,17.16
2023-04-30T02:48:24.767Z,17.12
2023-04-30T02:50:55.906Z,17.02
2023-04-30T02:53:25.869Z,17.06
2023-04-30T02:55:56.223Z,17.02
2023-04-30T02:58:26.144Z,17.04
2023-04-30T03:00:57.618Z,17.08
2023-04-30T03:03:27.919Z,17.00
2023-04-30T03:06:00.626Z,17.01
2023-04-30T03:08:30.695Z,17.07
2023-04-30T03:11:00.494Z,17.05
2023-04-30T03:13:30.977Z,17.04
2023-04-30T03:16:07.865Z,17.03
2023-04-30T03:18:38.275Z,17.13
2023-04-30T03:21:08.244Z,17.16
2023-04-30T03:23:40.107Z,17.12
2023-04-30T03:26:10.942Z,17.23
2023-04-30T03:28:41.281Z,17.25
2023-04-30T03:31:13.886Z,17.09
2023-04-30T03:33:44.381Z,17.07
2023-04-30T03:36:14.377Z,16.99
2023-04-30T03:38:44.813Z,16.94
2023-04-30T03:41:14.781Z,16.84
2023-04-30T03:43:44.530Z,16.51
2023-04-30T03:46:14.952Z,16.40
2023-04-30T03:48:45.044Z,16.30
2023-04-30T03:51:15.518Z,16.11
2023-04-30T03:53:45.447Z,16.15
2023-04-30T03:56:16.504Z,16.15
2023-04-30T03:58:46.456Z,16.31
2023-04-30T04:01:17.333Z,16.39
2023-04-30T04:03:47.770Z,16.48
2023-04-30T04:06:18.345Z,16.50
2023-04-30T04:08:49.174Z,16.44
2023-04-30T04:11:19.540Z,16.48
2023-04-30T04:13:49.481Z,16.36
2023-04-30T04:16:19.925Z,16.16
2023-04-30T04:18:49.908Z,16.01
2023-04-30T04:21:20.558Z,15.99
2023-04-30T04:23:50.810Z,16.02
2023-04-30T04:26:22.948Z,15.96
2023-04-30T04:28:54.009Z,15.91
2023-04-30T04:31:24.786Z,15.79
2023-04-30T04:33:59.769Z,15.78
2023-04-30T04:36:31.471Z,15.93
2023-04-30T04:39:04.990Z,15.96
2023-04-30T04:41:36.772Z,16.08
2023-04-30T04:44:06.868Z,16.32
2023-04-30T04:46:43.471Z,16.19
2023-04-30T04:49:13.822Z,16.17
2023-04-30T04:51:44.341Z,16.39
2023-04-30T04:54:14.304Z,16.64
2023-04-30T04:56:44.867Z,16.48
2023-04-30T04:59:15.032Z,16.20
2023-04-30T05:01:45.741Z,15.97
2023-04-30T05:04:15.723Z,15.86
2023-04-30T05:06:48.191Z,15.70
2023-04-30T05:09:18.661Z,15.73
2023-04-30T05:11:50.398Z,16.21
2023-04-30T05:14:22.030Z,16.38
2023-04-30T05:16:52.590Z,15.95
2023-04-30T05:19:23.303Z,15.81
2023-04-30T05:21:53.795Z,15.67
2023-04-30T05:24:23.764Z,15.68
2023-04-30T05:26:54.184Z,15.70
2023-04-30T05:29:23.944Z,15.74
2023-04-30T05:31:54.754Z,15.81
2023-04-30T05:34:24.944Z,15.77
2023-04-30T05:36:55.437Z,15.70
2023-04-30T05:39:25.307Z,15.54
2023-04-30T05:41:55.739Z,15.40
2023-04-30T05:44:25.681Z,15.46
2023-04-30T05:46:56.181Z,15.29
2023-04-30T05:49:26.287Z,15.33
2023-04-30T05:51:56.195Z,15.29
2023-04-30T05:54:26.551Z,15.24
2023-04-30T05:56:56.626Z,15.27
2023-04-30T05:59:27.158Z,15.33
2023-04-30T06:01:57.386Z,15.50
2023-04-30T06:04:27.834Z,15.35
2023-04-30T06:06:58.507Z,15.40
2023-04-30T06:09:28.775Z,15.40
2023-04-30T06:11:58.967Z,15.24
2023-04-30T06:14:29.398Z,15.25
2023-04-30T06:16:59.468Z,15.29
2023-04-30T06:19:29.867Z,15.25
2023-04-30T06:21:59.946Z,15.73
2023-04-30T06:24:31.540Z,15.77
2023-04-30T06:27:02.670Z,15.81
2023-04-30T06:29:32.981Z,15.73
2023-04-30T06:32:02.932Z,15.63
2023-04-30T06:34:33.506Z,15.52
2023-04-30T06:37:03.440Z,15.48
2023-04-30T06:39:33.215Z,15.39
2023-04-30T06:42:03.609Z,15.24
2023-04-30T06:44:34.226Z,15.24
2023-04-30T06:47:04.614Z,15.06
2023-04-30T06:49:34.527Z,14.82
2023-04-30T06:52:05.713Z,14.81
2023-04-30T06:54:35.654Z,14.96
2023-04-30T06:57:06.026Z,14.95
2023-04-30T06:59:35.933Z,14.92
2023-04-30T07:02:06.294Z,14.97
2023-04-30T07:04:36.533Z,15.10
2023-04-30T07:07:07.057Z,15.19
2023-04-30T07:09:37.621Z,15.22
2023-04-30T07:12:08.019Z,15.26
2023-04-30T07:14:37.906Z,15.25
2023-04-30T07:17:08.369Z,15.25
2023-04-30T07:19:38.353Z,15.06
2023-04-30T07:22:08.679Z,15.34
2023-04-30T07:24:38.721Z,15.16
2023-04-30T07:27:09.042Z,15.05
2023-04-30T07:29:38.925Z,15.07
2023-04-30T07:32:09.310Z,15.01
2023-04-30T07:34:39.453Z,15.29
2023-04-30T07:37:10.843Z,15.64
2023-04-30T07:39:40.854Z,15.87
2023-04-30T07:42:11.205Z,15.93
2023-04-30T07:44:42.315Z,16.23
2023-04-30T07:47:12.750Z,16.23
2023-04-30T07:49:42.817Z,16.28
2023-04-30T07:52:13.647Z,16.30
2023-04-30T07:54:43.671Z,16.44
2023-04-30T07:57:14.205Z,16.62
2023-04-30T07:59:44.122Z,16.75
2023-04-30T08:02:15.413Z,16.94
2023-04-30T08:04:45.492Z,16.88
2023-04-30T08:07:17.113Z,17.06
2023-04-30T08:09:47.016Z,17.21
2023-04-30T08:12:19.858Z,17.25
2023-04-30T08:14:49.786Z,17.44
2023-04-30T08:17:20.184Z,17.44
2023-04-30T08:19:50.200Z,17.52
2023-04-30T08:22:20.576Z,17.64
2023-04-30T08:24:50.658Z,17.73
2023-04-30T08:27:20.984Z,17.73
2023-04-30T08:29:50.927Z,17.85
2023-04-30T08:32:21.584Z,17.82
2023-04-30T08:34:51.563Z,17.81
2023-04-30T08:37:22.012Z,17.76
2023-04-30T08:39:51.969Z,17.89
2023-04-30T08:42:26.119Z,17.95
2023-04-30T08:44:56.073Z,18.00
2023-04-30T08:47:28.315Z,18.10
2023-04-30T08:49:58.374Z,18.06
2023-04-30T08:52:31.722Z,18.12
2023-04-30T08:55:03.451Z,18.13
2023-04-30T08:57:33.753Z,18.18
2023-04-30T09:00:03.745Z,18.05
2023-04-30T09:02:35.256Z,17.97
2023-04-30T09:05:09.014Z,18.11
2023-04-30T09:08:01.055Z,18.10
2023-04-30T09:10:37.406Z,18.06
2023-04-30T09:13:10.422Z,18.08
2023-04-30T09:15:42.695Z,18.08
2023-04-30T09:18:19.203Z,18.08
2023-04-30T09:21:04.057Z,18.20
2023-04-30T09:23:34.422Z,18.09
2023-04-30T09:26:05.086Z,18.02
2023-04-30T09:28:36.269Z,17.99
2023-04-30T09:31:20.480Z,17.93
2023-04-30T09:33:50.903Z,17.83
2023-04-30T09:36:20.828Z,17.77
2023-04-30T09:38:51.256Z,17.72
2023-04-30T09:41:25.526Z,17.78
2023-04-30T09:43:57.430Z,17.82
2023-04-30T09:46:39.403Z,17.70
2023-04-30T09:49:13.056Z,17.61
2023-04-30T09:51:57.688Z,17.54
2023-04-30T09:54:31.504Z,17.57
2023-04-30T09:57:03.320Z,17.64
2023-04-30T09:59:39.078Z,17.65
2023-04-30T10:02:10.874Z,17.60
2023-04-30T10:04:46.617Z,17.57
2023-04-30T10:07:22.990Z,17.48
2023-04-30T10:09:57.708Z,17.58
2023-04-30T10:12:44.759Z,17.98
2023-04-30T10:15:26.973Z,18.31
2023-04-30T10:18:05.922Z,18.54
2023-04-30T10:20:38.551Z,19.13
2023-04-30T10:23:09.712Z,19.37
2023-04-30T10:25:42.083Z,19.67
2023-04-30T10:28:13.763Z,19.97
2023-04-30T10:30:46.956Z,20.06
2023-04-30T10:33:26.621Z,20.45
2023-04-30T10:36:06.980Z,20.64
2023-04-30T10:38:39.129Z,20.84
2023-04-30T10:41:10.704Z,21.04
2023-04-30T10:43:40.813Z,21.36
2023-04-30T10:46:11.191Z,21.62
2023-04-30T10:48:41.206Z,21.86
2023-04-30T10:51:11.646Z,22.06
2023-04-30T10:53:44.209Z,22.27
2023-04-30T10:56:14.566Z,22.47
2023-04-30T10:58:45.241Z,22.52
2023-04-30T11:01:17.098Z,22.72
2023-04-30T11:04:07.397Z,23.17
2023-04-30T11:07:13.861Z,23.14
2023-04-30T11:09:46.542Z,23.60
2023-04-30T11:12:32.020Z,23.76
2023-04-30T11:15:17.712Z,24.34
2023-04-30T11:17:50.174Z,24.90
2023-04-30T11:20:25.825Z,24.91
2023-04-30T11:23:28.142Z,25.16
2023-04-30T11:26:08.742Z,25.30
2023-04-30T11:28:42.522Z,25.77
2023-04-30T11:31:14.115Z,25.56
2023-04-30T11:33:45.493Z,26.13
2023-04-30T11:36:16.256Z,26.55
2023-04-30T11:38:46.948Z,27.08
2023-04-30T11:41:17.217Z,27.10
2023-04-30T11:43:47.643Z,27.26
2023-04-30T11:46:21.237Z,27.66
2023-04-30T11:48:52.563Z,28.25
2023-04-30T11:51:25.203Z,28.10
2023-04-30T11:53:55.873Z,27.91
2023-04-30T11:56:27.352Z,28.37
2023-04-30T11:58:57.787Z,28.90
2023-04-30T12:01:30.567Z,28.43
2023-04-30T12:04:01.692Z,28.77
2023-04-30T12:06:32.361Z,29.14
2023-04-30T12:09:13.062Z,29.06
2023-04-30T12:11:43.232Z,29.65
2023-04-30T12:14:13.788Z,30.04
2023-04-30T12:16:52.211Z,30.12
2023-04-30T12:19:28.111Z,30.13
2023-04-30T12:21:58.252Z,29.97
2023-04-30T12:24:29.164Z,30.36
2023-04-30T12:27:03.191Z,30.72
2023-04-30T12:29:34.397Z,30.52
2023-04-30T12:32:04.960Z,30.18
2023-04-30T12:34:35.342Z,30.33
2023-04-30T12:37:05.088Z,30.56
2023-04-30T12:39:37.038Z,30.67
2023-04-30T12:42:07.425Z,30.83
2023-04-30T12:44:47.196Z,30.75
2023-04-30T12:47:18.137Z,30.90
2023-04-30T12:49:48.716Z,30.81
2023-04-30T12:52:18.741Z,30.34
2023-04-30T12:54:49.110Z,30.58
2023-04-30T12:57:18.993Z,30.62
2023-04-30T12:59:55.272Z,30.63
2023-04-30T13:02:27.076Z,31.05
2023-04-30T13:04:58.056Z,30.67
2023-04-30T13:07:28.104Z,30.73
2023-04-30T13:09:58.632Z,31.17
2023-04-30T13:12:28.545Z,31.79
2023-04-30T13:14:58.618Z,32.04
2023-04-30T13:17:29.032Z,32.30
2023-04-30T13:19:59.038Z,32.48
2023-04-30T13:22:30.740Z,33.00
2023-04-30T13:25:01.039Z,33.34
2023-04-30T13:27:31.341Z,33.33
2023-04-30T13:30:02.706Z,33.65
2023-04-30T13:32:32.618Z,33.33
2023-04-30T13:35:02.403Z,33.40
2023-04-30T13:37:36.822Z,33.69
2023-04-30T13:40:11.151Z,33.84
2023-04-30T13:42:42.813Z,33.98
2023-04-30T13:45:13.954Z,33.89
2023-04-30T13:47:43.940Z,33.31
2023-04-30T13:50:14.435Z,33.57
2023-04-30T13:52:44.517Z,33.89
2023-04-30T13:55:15.020Z,32.82
2023-04-30T13:57:44.996Z,33.36
2023-04-30T14:00:17.172Z,33.76
2023-04-30T14:02:46.739Z,33.53
2023-04-30T14:05:17.113Z,32.98
2023-04-30T14:07:47.031Z,33.36
2023-04-30T14:10:17.423Z,33.40
2023-04-30T14:12:47.639Z,33.29
2023-04-30T14:15:18.147Z,33.55
2023-04-30T14:17:48.090Z,33.08
2023-04-30T14:20:18.497Z,33.66
2023-04-30T14:22:48.710Z,33.91
2023-04-30T14:25:19.259Z,34.06
2023-04-30T14:27:49.329Z,34.33
2023-04-30T14:30:19.774Z,34.29
2023-04-30T14:32:49.799Z,35.03
2023-04-30T14:35:20.337Z,34.90
2023-04-30T14:37:50.296Z,34.62
2023-04-30T14:40:21.045Z,34.68
2023-04-30T14:42:51.694Z,34.44
2023-04-30T14:45:22.171Z,34.73
2023-04-30T14:47:52.112Z,34.96
2023-04-30T14:50:22.566Z,33.97
2023-04-30T14:52:52.826Z,34.43
2023-04-30T14:55:23.200Z,34.05
2023-04-30T14:57:53.106Z,34.82
2023-04-30T15:00:23.472Z,34.71
2023-04-30T15:02:55.320Z,35.34
2023-04-30T15:05:25.860Z,35.94
2023-04-30T15:07:55.569Z,36.39
2023-04-30T15:10:26.428Z,36.23
2023-04-30T15:12:56.309Z,36.57
2023-04-30T15:15:30.269Z,37.02
2023-04-30T15:18:00.585Z,37.01
2023-04-30T15:20:31.010Z,37.23
2023-04-30T15:23:01.173Z,37.30
2023-04-30T15:25:31.579Z,36.98
2023-04-30T15:28:02.599Z,36.99
2023-04-30T15:30:33.847Z,36.97
2023-04-30T15:33:04.564Z,37.15
2023-04-30T15:35:34.982Z,37.64
2023-04-30T15:38:04.698Z,37.87
2023-04-30T15:40:35.069Z,38.11
2023-04-30T15:43:06.878Z,38.29
2023-04-30T15:45:37.464Z,38.10
2023-04-30T15:48:07.768Z,37.18
2023-04-30T15:50:38.250Z,36.72
2023-04-30T15:53:08.218Z,36.38
2023-04-30T15:55:39.748Z,36.95
2023-04-30T15:58:09.854Z,37.17
2023-04-30T16:00:40.884Z,36.58
2023-04-30T16:03:10.868Z,36.55
2023-04-30T16:05:42.432Z,36.72
2023-04-30T16:08:13.290Z,36.60
2023-04-30T16:10:44.557Z,36.81
2023-04-30T16:13:15.045Z,36.63
2023-04-30T16:15:45.468Z,36.59
2023-04-30T16:18:15.522Z,37.28
2023-04-30T16:20:48.369Z,37.61
2023-04-30T16:23:18.369Z,38.15
2023-04-30T16:25:48.767Z,38.31
2023-04-30T16:28:18.654Z,38.34
2023-04-30T16:30:49.282Z,38.47
2023-04-30T16:33:19.293Z,38.57
2023-04-30T16:35:50.099Z,37.97
2023-04-30T16:38:20.050Z,37.89
2023-04-30T16:40:51.325Z,37.71
2023-04-30T16:43:21.274Z,37.67
2023-04-30T16:45:51.850Z,37.45
2023-04-30T16:48:22.059Z,37.09
2023-04-30T16:50:52.654Z,37.30
2023-04-30T16:53:23.053Z,36.76
2023-04-30T16:55:54.058Z,36.55
2023-04-30T16:58:24.018Z,36.69
2023-04-30T17:00:57.195Z,37.06
2023-04-30T17:03:27.240Z,37.49
2023-04-30T17:05:57.809Z,37.97
2023-04-30T17:08:27.828Z,37.24
2023-04-30T17:10:58.435Z,38.12
2023-04-30T17:13:28.467Z,37.57
2023-04-30T17:16:02.053Z,37.99
2023-04-30T17:18:32.328Z,37.18
2023-04-30T17:21:02.677Z,37.08
2023-04-30T17:23:33.051Z,36.62
2023-04-30T17:26:05.009Z,36.98
2023-04-30T17:28:34.458Z,37.77
2023-04-30T17:31:07.882Z,37.97
2023-04-30T17:33:37.880Z,38.21
2023-04-30T17:36:10.065Z,38.44
2023-04-30T17:38:40.405Z,37.57
2023-04-30T17:41:10.818Z,37.49
2023-04-30T17:43:40.980Z,37.12
2023-04-30T17:46:11.741Z,37.73
2023-04-30T17:48:41.841Z,37.96
2023-04-30T17:51:12.400Z,37.66
2023-04-30T17:53:42.419Z,37.41
2023-04-30T17:56:13.386Z,37.28
2023-04-30T17:58:43.296Z,37.37
2023-04-30T18:01:14.343Z,37.38
2023-04-30T18:03:44.488Z,36.22
2023-04-30T18:06:14.517Z,36.55
2023-04-30T18:08:45.303Z,36.48
2023-04-30T18:11:15.883Z,36.75
2023-04-30T18:13:46.068Z,36.56
2023-04-30T18:16:16.449Z,36.59
2023-04-30T18:18:46.183Z,36.46
2023-04-30T18:21:16.508Z,36.25
2023-04-30T18:23:46.216Z,36.29
2023-04-30T18:26:19.331Z,35.88
2023-04-30T18:28:50.789Z,35.81
2023-04-30T18:31:21.983Z,34.36
2023-04-30T18:33:51.943Z,34.79
2023-04-30T18:36:22.424Z,34.80
2023-04-30T18:38:52.960Z,34.23
2023-04-30T18:41:23.419Z,34.34
2023-04-30T18:43:53.327Z,34.89
2023-04-30T18:46:24.173Z,35.19
2023-04-30T18:48:54.569Z,35.14
2023-04-30T18:51:24.406Z,35.28
2023-04-30T18:53:55.156Z,35.09
2023-04-30T18:56:25.790Z,35.69
2023-04-30T18:58:56.185Z,35.40
2023-04-30T19:01:28.316Z,35.27
2023-04-30T19:03:58.829Z,35.35
2023-04-30T19:06:29.347Z,34.77
2023-04-30T19:09:00.815Z,34.97
2023-04-30T19:11:30.898Z,34.56
2023-04-30T19:14:01.211Z,34.69
2023-04-30T19:16:31.598Z,35.15
2023-04-30T19:19:02.124Z,34.27
2023-04-30T19:21:33.533Z,34.04
2023-04-30T19:24:07.065Z,34.45
2023-04-30T19:26:38.573Z,34.69
2023-04-30T19:29:08.886Z,34.74
2023-04-30T19:31:39.002Z,34.06
2023-04-30T19:34:09.361Z,33.54
2023-04-30T19:36:39.284Z,33.84
2023-04-30T19:39:11.881Z,34.32
2023-04-30T19:41:42.109Z,32.93
2023-04-30T19:44:12.754Z,32.35
2023-04-30T19:46:43.498Z,31.83
2023-04-30T19:49:14.119Z,31.92
2023-04-30T19:51:44.159Z,31.55
2023-04-30T19:54:15.368Z,31.03
2023-04-30T19:56:45.751Z,30.66
2023-04-30T19:59:16.162Z,30.92
2023-04-30T20:01:46.486Z,30.49
2023-04-30T20:04:16.836Z,30.19
2023-04-30T20:06:48.643Z,30.05
2023-04-30T20:09:18.645Z,30.38
2023-04-30T20:11:50.772Z,29.95
2023-04-30T20:14:21.199Z,29.28
2023-04-30T20:16:55.383Z,28.99
2023-04-30T20:19:26.585Z,29.04
2023-04-30T20:21:56.488Z,28.45
2023-04-30T20:24:26.869Z,28.55
2023-04-30T20:26:56.793Z,28.40
2023-04-30T20:29:27.097Z,27.85
2023-04-30T20:31:59.547Z,27.99
2023-04-30T20:34:30.169Z,28.40
2023-04-30T20:37:00.855Z,28.31
2023-04-30T20:39:31.288Z,28.13
2023-04-30T20:42:02.510Z,27.95
2023-04-30T20:44:32.854Z,27.56
2023-04-30T20:47:06.523Z,27.27
2023-04-30T20:49:37.040Z,27.04
2023-04-30T20:52:09.976Z,26.90
2023-04-30T20:54:40.643Z,26.66
2023-04-30T20:57:10.806Z,26.50
2023-04-30T20:59:41.209Z,26.29
2023-04-30T21:02:11.416Z,26.01
2023-04-30T21:04:41.964Z,26.03
2023-04-30T21:07:11.973Z,26.01
2023-04-30T21:09:42.741Z,25.95
2023-04-30T21:12:14.194Z,25.76
2023-04-30T21:14:44.548Z,25.64
2023-04-30T21:17:15.739Z,25.47
2023-04-30T21:19:46.037Z,25.19
2023-04-30T21:22:16.050Z,25.10
2023-04-30T21:24:46.371Z,24.93
2023-04-30T21:27:16.306Z,24.66
2023-04-30T21:29:47.976Z,24.55
2023-04-30T21:32:18.875Z,24.03
2023-04-30T21:34:49.387Z,23.55
2023-04-30T21:37:19.451Z,23.45
2023-04-30T21:39:49.802Z,23.52
2023-04-30T21:42:19.798Z,23.31
2023-04-30T21:44:50.213Z,23.02
2023-04-30T21:47:20.098Z,23.04
2023-04-30T21:49:49.780Z,23.28
2023-04-30T21:52:20.294Z,23.50
2023-04-30T21:54:52.959Z,23.65
2023-04-30T21:57:23.348Z,23.70
2023-04-30T21:59:53.354Z,23.59
2023-04-30T22:02:24.610Z,23.57
2023-04-30T22:04:55.181Z,23.53
2023-04-30T22:07:25.737Z,23.68
2023-04-30T22:09:56.003Z,23.95
2023-04-30T22:12:27.091Z,24.03
2023-04-30T22:14:57.299Z,24.09
2023-04-30T22:17:28.660Z,24.10
2023-04-30T22:19:58.985Z,24.16
2023-04-30T22:22:29.498Z,24.21
2023-04-30T22:24:59.378Z,24.27
2023-04-30T22:27:29.781Z,24.30
2023-04-30T22:30:00.194Z,24.30
2023-04-30T22:32:30.599Z,24.25
2023-04-30T22:35:12.285Z,24.37
2023-04-30T22:37:42.646Z,24.38
2023-04-30T22:40:12.979Z,24.38
2023-04-30T22:42:44.232Z,24.17
2023-04-30T22:45:14.429Z,23.70
2023-04-30T22:47:46.869Z,23.06
2023-04-30T22:50:16.891Z,22.60
2023-04-30T22:52:47.867Z,22.82
2023-04-30T22:55:18.012Z,22.76
2023-04-30T22:57:48.322Z,22.73
2023-04-30T23:00:19.935Z,22.61
2023-04-30T23:02:51.238Z,22.40
2023-04-30T23:05:21.267Z,22.11
2023-04-30T23:07:51.724Z,22.17
2023-04-30T23:10:21.689Z,21.97
2023-04-30T23:12:52.198Z,21.54
2023-04-30T23:15:22.249Z,21.50
2023-04-30T23:17:52.841Z,21.69
2023-04-30T23:20:23.699Z,21.73
2023-04-30T23:22:54.064Z,21.67
2023-04-30T23:25:24.048Z,21.53
2023-04-30T23:27:55.034Z,21.23
2023-04-30T23:30:24.964Z,21.22
2023-04-30T23:32:55.797Z,20.69
2023-04-30T23:35:25.786Z,20.48
2023-04-30T23:37:56.201Z,20.36
2023-04-30T23:40:26.091Z,20.56
2023-04-30T23:42:56.456Z,20.33
2023-04-30T23:45:26.465Z,20.19
2023-04-30T23:47:56.815Z,20.21
2023-04-30T23:50:27.343Z,20.07
2023-04-30T23:52:57.767Z,19.96
2023-04-30T23:55:27.806Z,20.11
2023-04-30T23:57:58.113Z,20.26
